CheckWX is a tool to help pilots better visualize weather data.  It is not intended as a substitute for an official pre-flight weather briefing.

19:58:57 UTC

KSXT METAR
Sexton Summit Airport
Sexton Summit, Oregon, USA
Current

3 hours ago

KSXT 251656Z AUTO 00000KT 10SM BKN037 13/04 A2994 RMK AO2 SLP112 T01330044
Observed
Jun-25 @ 16:56 UTC
Visibility
10 SM
Flight Rules
VFR
Cloud Levels
  • Broken at 3,700' AGL
Temperature
13°C / 55°F
Dewpoint
C / 39°F
Humidity
55%
Altimeter
29.94" Hg
Pressure
1013.92 hPa
Previous

4 hours ago

KSXT 251556Z AUTO 00000KT 10SM BKN045 12/03 A2994 RMK AO2 SLP114 T01220033
Observed
Jun-25 @ 15:56 UTC
Visibility
10 SM
Flight Rules
VFR
Cloud Levels
  • Broken at 4,500' AGL
Temperature
12°C / 54°F
Dewpoint
C / 37°F
Humidity
54%
Altimeter
29.94" Hg
Pressure
1013.92 hPa
Previous

5 hours ago

KSXT 251456Z AUTO 00000KT 10SM CLR 12/02 A2994 RMK AO2 SLP108 T01170022 55000
Observed
Jun-25 @ 14:56 UTC
Visibility
10 SM
Flight Rules
VFR
Cloud Levels
  • Clear skies
Temperature
12°C / 54°F
Dewpoint
C / 36°F
Humidity
51%
Altimeter
29.94" Hg
Pressure
1013.92 hPa